sensor_id;sensor_type;location;lat;lon;timestamp;pressure;altitude;pressure_sealevel;temperature;humidity
62124;BME280;48110;47.532;19.078;2023-04-26T00:00:48;99685.84;;;8.37;100.00
62124;BME280;48110;47.532;19.078;2023-04-26T00:03:51;99688.16;;;8.32;100.00
62124;BME280;48110;47.532;19.078;2023-04-26T00:06:54;99689.31;;;8.29;100.00
62124;BME280;48110;47.532;19.078;2023-04-26T00:09:56;99687.97;;;8.34;100.00
62124;BME280;48110;47.532;19.078;2023-04-26T00:12:59;99696.09;;;8.32;100.00
62124;BME280;48110;47.532;19.078;2023-04-26T00:16:01;99700.19;;;8.35;100.00
62124;BME280;48110;47.532;19.078;2023-04-26T00:19:04;99699.22;;;8.27;100.00
62124;BME280;48110;47.532;19.078;2023-04-26T00:22:07;99703.00;;;8.33;100.00
62124;BME280;48110;47.532;19.078;2023-04-26T00:25:10;99705.31;;;8.36;100.00
62124;BME280;48110;47.532;19.078;2023-04-26T00:28:12;99709.94;;;8.34;100.00
62124;BME280;48110;47.532;19.078;2023-04-26T00:31:15;99706.97;;;8.37;100.00
62124;BME280;48110;47.532;19.078;2023-04-26T00:34:18;99713.75;;;8.32;100.00
62124;BME280;48110;47.532;19.078;2023-04-26T00:37:21;99719.69;;;8.34;100.00
62124;BME280;48110;47.532;19.078;2023-04-26T00:40:24;99723.31;;;8.24;100.00
62124;BME280;48110;47.532;19.078;2023-04-26T00:43:27;99722.50;;;8.32;100.00
62124;BME280;48110;47.532;19.078;2023-04-26T00:46:30;99719.84;;;8.24;100.00
62124;BME280;48110;47.532;19.078;2023-04-26T00:49:32;99730.75;;;8.21;100.00
62124;BME280;48110;47.532;19.078;2023-04-26T00:52:35;99724.66;;;8.20;100.00
62124;BME280;48110;47.532;19.078;2023-04-26T00:55:38;99731.94;;;8.10;100.00
62124;BME280;48110;47.532;19.078;2023-04-26T00:58:40;99727.00;;;8.07;100.00
62124;BME280;48110;47.532;19.078;2023-04-26T01:01:43;99722.03;;;8.04;100.00
62124;BME280;48110;47.532;19.078;2023-04-26T01:04:46;99733.44;;;7.97;100.00
62124;BME280;48110;47.532;19.078;2023-04-26T01:07:49;99735.41;;;7.95;100.00
62124;BME280;48110;47.532;19.078;2023-04-26T01:10:52;99733.78;;;7.94;100.00
62124;BME280;48110;47.532;19.078;2023-04-26T01:13:55;99744.00;;;7.89;100.00
62124;BME280;48110;47.532;19.078;2023-04-26T01:16:59;99738.38;;;7.75;100.00
62124;BME280;48110;47.532;19.078;2023-04-26T01:20:01;99742.03;;;7.66;100.00
62124;BME280;48110;47.532;19.078;2023-04-26T01:23:04;99744.66;;;7.66;100.00
62124;BME280;48110;47.532;19.078;2023-04-26T01:26:07;99747.16;;;7.68;100.00
62124;BME280;48110;47.532;19.078;2023-04-26T01:29:19;99750.91;;;7.65;100.00
62124;BME280;48110;47.532;19.078;2023-04-26T01:32:22;99755.72;;;7.62;100.00
62124;BME280;48110;47.532;19.078;2023-04-26T01:35:25;99757.03;;;7.58;100.00
62124;BME280;48110;47.532;19.078;2023-04-26T01:38:27;99761.47;;;7.65;100.00
62124;BME280;48110;47.532;19.078;2023-04-26T01:41:30;99757.37;;;7.63;100.00
62124;BME280;48110;47.532;19.078;2023-04-26T01:44:34;99770.22;;;7.66;100.00
62124;BME280;48110;47.532;19.078;2023-04-26T01:47:37;99770.56;;;7.63;100.00
62124;BME280;48110;47.532;19.078;2023-04-26T01:50:39;99769.06;;;7.52;100.00
62124;BME280;48110;47.532;19.078;2023-04-26T01:53:42;99766.59;;;7.51;100.00
62124;BME280;48110;47.532;19.078;2023-04-26T01:56:44;99776.66;;;7.55;100.00
62124;BME280;48110;47.532;19.078;2023-04-26T01:59:47;99777.47;;;7.56;100.00
62124;BME280;48110;47.532;19.078;2023-04-26T02:02:53;99774.84;;;7.56;100.00
62124;BME280;48110;47.532;19.078;2023-04-26T02:05:57;99777.31;;;7.49;100.00
62124;BME280;48110;47.532;19.078;2023-04-26T02:09:00;99773.50;;;7.43;100.00
62124;BME280;48110;47.532;19.078;2023-04-26T02:12:03;99777.97;;;7.43;100.00
62124;BME280;48110;47.532;19.078;2023-04-26T02:15:06;99782.41;;;7.51;100.00
62124;BME280;48110;47.532;19.078;2023-04-26T02:18:09;99788.37;;;7.53;100.00
62124;BME280;48110;47.532;19.078;2023-04-26T02:21:15;99780.13;;;7.56;100.00
62124;BME280;48110;47.532;19.078;2023-04-26T02:24:17;99790.66;;;7.56;100.00
62124;BME280;48110;47.532;19.078;2023-04-26T02:27:20;99782.59;;;7.57;100.00
62124;BME280;48110;47.532;19.078;2023-04-26T02:30:23;99787.87;;;7.57;100.00
62124;BME280;48110;47.532;19.078;2023-04-26T02:33:25;99786.75;;;7.60;100.00
62124;BME280;48110;47.532;19.078;2023-04-26T02:36:28;99794.13;;;7.56;100.00
62124;BME280;48110;47.532;19.078;2023-04-26T02:39:31;99791.50;;;7.56;100.00
62124;BME280;48110;47.532;19.078;2023-04-26T02:42:34;99794.31;;;7.55;100.00
62124;BME280;48110;47.532;19.078;2023-04-26T02:45:43;99794.00;;;7.50;100.00
62124;BME280;48110;47.532;19.078;2023-04-26T02:48:46;99791.16;;;7.43;100.00
62124;BME280;48110;47.532;19.078;2023-04-26T02:51:48;99786.38;;;7.38;100.00
62124;BME280;48110;47.532;19.078;2023-04-26T02:54:51;99797.13;;;7.45;100.00
62124;BME280;48110;47.532;19.078;2023-04-26T02:57:53;99806.00;;;7.44;100.00
62124;BME280;48110;47.532;19.078;2023-04-26T03:00:56;99809.47;;;7.45;100.00
62124;BME280;48110;47.532;19.078;2023-04-26T03:04:03;99806.66;;;7.46;100.00
62124;BME280;48110;47.532;19.078;2023-04-26T03:07:07;99816.72;;;7.34;100.00
62124;BME280;48110;47.532;19.078;2023-04-26T03:10:10;99835.81;;;7.28;100.00
62124;BME280;48110;47.532;19.078;2023-04-26T03:13:13;99827.41;;;7.25;100.00
62124;BME280;48110;47.532;19.078;2023-04-26T03:16:19;99840.75;;;7.23;100.00
62124;BME280;48110;47.532;19.078;2023-04-26T03:19:22;99840.19;;;7.12;100.00
62124;BME280;48110;47.532;19.078;2023-04-26T03:22:25;99844.88;;;7.26;100.00
62124;BME280;48110;47.532;19.078;2023-04-26T03:25:28;99855.09;;;7.21;100.00
62124;BME280;48110;47.532;19.078;2023-04-26T03:28:30;99847.47;;;7.18;100.00
62124;BME280;48110;47.532;19.078;2023-04-26T03:31:33;99848.44;;;7.09;100.00
62124;BME280;48110;47.532;19.078;2023-04-26T03:34:36;99856.31;;;7.01;100.00
62124;BME280;48110;47.532;19.078;2023-04-26T03:37:39;99859.91;;;6.91;100.00
62124;BME280;48110;47.532;19.078;2023-04-26T03:40:42;99866.16;;;6.90;100.00
62124;BME280;48110;47.532;19.078;2023-04-26T03:43:45;99875.81;;;6.82;100.00
62124;BME280;48110;47.532;19.078;2023-04-26T03:46:48;99870.47;;;6.74;100.00
62124;BME280;48110;47.532;19.078;2023-04-26T03:49:50;99870.31;;;6.67;100.00
62124;BME280;48110;47.532;19.078;2023-04-26T03:52:53;99864.03;;;6.68;100.00
62124;BME280;48110;47.532;19.078;2023-04-26T03:55:55;99880.06;;;6.75;100.00
62124;BME280;48110;47.532;19.078;2023-04-26T03:58:59;99884.97;;;6.70;100.00
62124;BME280;48110;47.532;19.078;2023-04-26T04:02:02;99879.03;;;6.68;100.00
62124;BME280;48110;47.532;19.078;2023-04-26T04:05:05;99887.13;;;6.48;100.00
62124;BME280;48110;47.532;19.078;2023-04-26T04:08:08;99887.69;;;6.60;100.00
62124;BME280;48110;47.532;19.078;2023-04-26T04:11:11;99888.28;;;6.72;100.00
62124;BME280;48110;47.532;19.078;2023-04-26T04:14:13;99886.41;;;6.64;100.00
62124;BME280;48110;47.532;19.078;2023-04-26T04:17:16;99900.25;;;6.66;100.00
62124;BME280;48110;47.532;19.078;2023-04-26T04:20:18;99902.28;;;6.72;100.00
62124;BME280;48110;47.532;19.078;2023-04-26T04:23:23;99900.50;;;6.73;100.00
62124;BME280;48110;47.532;19.078;2023-04-26T04:26:25;99894.09;;;6.83;100.00
62124;BME280;48110;47.532;19.078;2023-04-26T04:29:29;99881.00;;;6.91;100.00
62124;BME280;48110;47.532;19.078;2023-04-26T04:32:32;99893.22;;;7.01;100.00
62124;BME280;48110;47.532;19.078;2023-04-26T04:35:35;99906.66;;;7.15;100.00
62124;BME280;48110;47.532;19.078;2023-04-26T04:38:38;99909.31;;;7.23;100.00
62124;BME280;48110;47.532;19.078;2023-04-26T04:41:41;99924.69;;;7.28;100.00
62124;BME280;48110;47.532;19.078;2023-04-26T04:44:49;99927.19;;;7.37;100.00
62124;BME280;48110;47.532;19.078;2023-04-26T04:47:52;99932.19;;;7.40;100.00
62124;BME280;48110;47.532;19.078;2023-04-26T04:50:56;99932.59;;;7.28;100.00
62124;BME280;48110;47.532;19.078;2023-04-26T04:54:08;99938.38;;;7.31;100.00
62124;BME280;48110;47.532;19.078;2023-04-26T04:57:10;99946.78;;;7.27;100.00
62124;BME280;48110;47.532;19.078;2023-04-26T05:00:14;99948.44;;;7.28;100.00
62124;BME280;48110;47.532;19.078;2023-04-26T05:03:17;99963.06;;;7.22;100.00
62124;BME280;48110;47.532;19.078;2023-04-26T05:06:20;99956.59;;;7.17;100.00
62124;BME280;48110;47.532;19.078;2023-04-26T05:09:22;99966.19;;;7.18;100.00
62124;BME280;48110;47.532;19.078;2023-04-26T05:12:25;99962.87;;;7.16;100.00
62124;BME280;48110;47.532;19.078;2023-04-26T05:15:28;99976.25;;;7.22;100.00
62124;BME280;48110;47.532;19.078;2023-04-26T05:18:31;99973.81;;;7.21;100.00
62124;BME280;48110;47.532;19.078;2023-04-26T05:21:33;99982.84;;;7.18;100.00
62124;BME280;48110;47.532;19.078;2023-04-26T05:24:37;99985.94;;;7.14;100.00
62124;BME280;48110;47.532;19.078;2023-04-26T05:27:39;99984.97;;;7.15;100.00
62124;BME280;48110;47.532;19.078;2023-04-26T05:30:43;99974.09;;;7.18;100.00
62124;BME280;48110;47.532;19.078;2023-04-26T05:33:46;99980.59;;;7.31;100.00
62124;BME280;48110;47.532;19.078;2023-04-26T05:36:49;99980.81;;;7.38;100.00
62124;BME280;48110;47.532;19.078;2023-04-26T05:39:53;99977.72;;;7.51;100.00
62124;BME280;48110;47.532;19.078;2023-04-26T05:42:56;99989.31;;;7.58;100.00
62124;BME280;48110;47.532;19.078;2023-04-26T05:46:00;99997.03;;;7.51;100.00
62124;BME280;48110;47.532;19.078;2023-04-26T05:49:03;99995.44;;;7.58;100.00
62124;BME280;48110;47.532;19.078;2023-04-26T05:52:06;99996.91;;;7.61;100.00
62124;BME280;48110;47.532;19.078;2023-04-26T05:55:16;100000.34;;;7.53;100.00
62124;BME280;48110;47.532;19.078;2023-04-26T05:58:18;99986.56;;;7.67;100.00
62124;BME280;48110;47.532;19.078;2023-04-26T06:01:21;99997.84;;;7.85;100.00
62124;BME280;48110;47.532;19.078;2023-04-26T06:04:24;100001.00;;;7.89;100.00
62124;BME280;48110;47.532;19.078;2023-04-26T06:07:29;100016.19;;;7.87;100.00
62124;BME280;48110;47.532;19.078;2023-04-26T06:10:34;100020.50;;;7.96;100.00
62124;BME280;48110;47.532;19.078;2023-04-26T06:13:36;100014.25;;;8.05;100.00
62124;BME280;48110;47.532;19.078;2023-04-26T06:16:40;100017.59;;;8.07;100.00
62124;BME280;48110;47.532;19.078;2023-04-26T06:19:45;100026.03;;;8.19;100.00
62124;BME280;48110;47.532;19.078;2023-04-26T06:22:47;100019.34;;;8.33;100.00
62124;BME280;48110;47.532;19.078;2023-04-26T06:25:50;100029.00;;;8.24;99.16
62124;BME280;48110;47.532;19.078;2023-04-26T06:28:52;100028.41;;;8.38;96.53
62124;BME280;48110;47.532;19.078;2023-04-26T06:31:55;100027.44;;;8.47;94.82
62124;BME280;48110;47.532;19.078;2023-04-26T06:34:58;100024.00;;;8.55;93.34
62124;BME280;48110;47.532;19.078;2023-04-26T06:38:00;100020.88;;;8.84;91.02
62124;BME280;48110;47.532;19.078;2023-04-26T06:41:03;100015.75;;;8.66;88.37
62124;BME280;48110;47.532;19.078;2023-04-26T06:44:06;100021.69;;;8.84;84.63
62124;BME280;48110;47.532;19.078;2023-04-26T06:47:13;100025.97;;;9.01;84.75
62124;BME280;48110;47.532;19.078;2023-04-26T06:50:15;100029.12;;;9.29;79.75
62124;BME280;48110;47.532;19.078;2023-04-26T06:53:18;100030.87;;;9.45;75.42
62124;BME280;48110;47.532;19.078;2023-04-26T06:56:23;100028.03;;;9.63;76.26
62124;BME280;48110;47.532;19.078;2023-04-26T06:59:26;100034.72;;;9.89;73.23
62124;BME280;48110;47.532;19.078;2023-04-26T07:02:29;100033.37;;;10.01;70.94
62124;BME280;48110;47.532;19.078;2023-04-26T07:05:31;100038.28;;;10.74;67.51
62124;BME280;48110;47.532;19.078;2023-04-26T07:08:34;100045.06;;;11.14;62.98
62124;BME280;48110;47.532;19.078;2023-04-26T07:11:37;100031.78;;;11.52;60.27
62124;BME280;48110;47.532;19.078;2023-04-26T07:14:39;100047.25;;;11.11;55.73
62124;BME280;48110;47.532;19.078;2023-04-26T07:17:42;100036.56;;;11.19;55.74
62124;BME280;48110;47.532;19.078;2023-04-26T07:20:45;100046.81;;;11.74;53.71
62124;BME280;48110;47.532;19.078;2023-04-26T07:23:51;100049.34;;;12.26;51.56
62124;BME280;48110;47.532;19.078;2023-04-26T07:26:55;100037.63;;;11.32;51.98
62124;BME280;48110;47.532;19.078;2023-04-26T07:29:59;100041.41;;;12.47;49.28
62124;BME280;48110;47.532;19.078;2023-04-26T07:33:02;100059.84;;;12.70;47.50
62124;BME280;48110;47.532;19.078;2023-04-26T07:36:05;100048.75;;;12.09;47.07
62124;BME280;48110;47.532;19.078;2023-04-26T07:39:07;100067.97;;;11.97;45.28
62124;BME280;48110;47.532;19.078;2023-04-26T07:42:11;100077.87;;;12.17;45.97
62124;BME280;48110;47.532;19.078;2023-04-26T07:45:13;100083.66;;;13.14;44.38
62124;BME280;48110;47.532;19.078;2023-04-26T07:48:18;100077.44;;;12.86;44.32
62124;BME280;48110;47.532;19.078;2023-04-26T07:51:20;100079.53;;;12.04;45.71
62124;BME280;48110;47.532;19.078;2023-04-26T07:54:23;100075.34;;;13.24;44.98
62124;BME280;48110;47.532;19.078;2023-04-26T07:57:25;100081.66;;;14.06;42.12
62124;BME280;48110;47.532;19.078;2023-04-26T08:00:28;100078.63;;;13.81;42.51
62124;BME280;48110;47.532;19.078;2023-04-26T08:03:31;100083.66;;;13.98;43.67
62124;BME280;48110;47.532;19.078;2023-04-26T08:06:34;100093.25;;;13.92;42.79
62124;BME280;48110;47.532;19.078;2023-04-26T08:09:37;100092.38;;;14.19;43.33
62124;BME280;48110;47.532;19.078;2023-04-26T08:12:45;100097.41;;;15.16;42.69
62124;BME280;48110;47.532;19.078;2023-04-26T08:15:48;100091.87;;;15.50;41.72
62124;BME280;48110;47.532;19.078;2023-04-26T08:18:50;100105.41;;;17.04;37.66
62124;BME280;48110;47.532;19.078;2023-04-26T08:21:53;100101.44;;;14.72;40.23
62124;BME280;48110;47.532;19.078;2023-04-26T08:24:55;100106.81;;;14.79;39.04
62124;BME280;48110;47.532;19.078;2023-04-26T08:27:58;100105.88;;;13.49;41.07
62124;BME280;48110;47.532;19.078;2023-04-26T08:31:00;100110.50;;;13.62;41.47
62124;BME280;48110;47.532;19.078;2023-04-26T08:34:03;100110.28;;;14.66;39.30
62124;BME280;48110;47.532;19.078;2023-04-26T08:37:06;100108.25;;;14.27;40.08
62124;BME280;48110;47.532;19.078;2023-04-26T08:40:13;100127.69;;;13.87;41.05
62124;BME280;48110;47.532;19.078;2023-04-26T08:43:22;100114.25;;;14.36;40.76
62124;BME280;48110;47.532;19.078;2023-04-26T08:46:24;100121.19;;;14.91;39.19
62124;BME280;48110;47.532;19.078;2023-04-26T08:49:41;100125.22;;;15.61;38.25
62124;BME280;48110;47.532;19.078;2023-04-26T08:52:45;100123.78;;;15.65;38.87
62124;BME280;48110;47.532;19.078;2023-04-26T08:55:49;100121.81;;;13.42;41.53
62124;BME280;48110;47.532;19.078;2023-04-26T08:58:52;100122.56;;;14.67;38.89
62124;BME280;48110;47.532;19.078;2023-04-26T09:01:55;100130.94;;;15.32;36.61
62124;BME280;48110;47.532;19.078;2023-04-26T09:04:58;100126.41;;;15.12;37.38
62124;BME280;48110;47.532;19.078;2023-04-26T09:08:01;100127.88;;;13.85;38.96
62124;BME280;48110;47.532;19.078;2023-04-26T09:11:06;100136.72;;;15.75;37.11
62124;BME280;48110;47.532;19.078;2023-04-26T09:14:08;100128.87;;;16.06;35.58
62124;BME280;48110;47.532;19.078;2023-04-26T09:20:27;100131.97;;;15.50;36.15
62124;BME280;48110;47.532;19.078;2023-04-26T09:23:30;100122.47;;;14.95;36.81
62124;BME280;48110;47.532;19.078;2023-04-26T09:26:33;100127.09;;;16.95;35.39
62124;BME280;48110;47.532;19.078;2023-04-26T09:29:35;100123.31;;;15.09;36.19
62124;BME280;48110;47.532;19.078;2023-04-26T09:35:50;100130.91;;;16.04;34.25
62124;BME280;48110;47.532;19.078;2023-04-26T09:38:53;100127.38;;;16.23;33.60
62124;BME280;48110;47.532;19.078;2023-04-26T09:41:56;100128.28;;;17.00;32.61
62124;BME280;48110;47.532;19.078;2023-04-26T09:45:04;100124.69;;;16.30;33.23
62124;BME280;48110;47.532;19.078;2023-04-26T09:48:23;100119.44;;;17.30;32.03
62124;BME280;48110;47.532;19.078;2023-04-26T09:51:31;100117.78;;;17.61;31.76
62124;BME280;48110;47.532;19.078;2023-04-26T09:54:40;100114.09;;;15.71;34.10
62124;BME280;48110;47.532;19.078;2023-04-26T09:57:43;100121.91;;;15.39;36.49
62124;BME280;48110;47.532;19.078;2023-04-26T10:00:46;100128.87;;;14.53;37.59
62124;BME280;48110;47.532;19.078;2023-04-26T10:03:50;100112.63;;;15.22;35.33
62124;BME280;48110;47.532;19.078;2023-04-26T10:06:54;100117.75;;;15.04;36.18
62124;BME280;48110;47.532;19.078;2023-04-26T10:09:56;100112.81;;;14.94;35.92
62124;BME280;48110;47.532;19.078;2023-04-26T10:12:59;100121.97;;;14.72;37.08
62124;BME280;48110;47.532;19.078;2023-04-26T10:16:02;100109.56;;;14.10;36.25
62124;BME280;48110;47.532;19.078;2023-04-26T10:19:05;100123.44;;;13.92;37.42
62124;BME280;48110;47.532;19.078;2023-04-26T10:22:10;100116.78;;;13.82;38.44
62124;BME280;48110;47.532;19.078;2023-04-26T10:25:15;100112.28;;;13.55;38.37
62124;BME280;48110;47.532;19.078;2023-04-26T10:35:29;100115.69;;;14.99;35.84
62124;BME280;48110;47.532;19.078;2023-04-26T10:38:33;100113.59;;;14.75;34.18
62124;BME280;48110;47.532;19.078;2023-04-26T10:41:39;100120.28;;;15.71;32.71
62124;BME280;48110;47.532;19.078;2023-04-26T10:44:55;100120.94;;;14.73;34.41
62124;BME280;48110;47.532;19.078;2023-04-26T10:51:21;100127.91;;;15.68;31.28
62124;BME280;48110;47.532;19.078;2023-04-26T10:54:26;100115.91;;;13.75;33.74
62124;BME280;48110;47.532;19.078;2023-04-26T10:57:50;100119.88;;;16.96;30.77
62124;BME280;48110;47.532;19.078;2023-04-26T11:01:02;100122.78;;;17.26;30.71
62124;BME280;48110;47.532;19.078;2023-04-26T11:04:09;100119.59;;;17.35;30.86
62124;BME280;48110;47.532;19.078;2023-04-26T11:07:12;100112.34;;;16.22;31.71
62124;BME280;48110;47.532;19.078;2023-04-26T11:10:21;100114.87;;;15.25;33.31
62124;BME280;48110;47.532;19.078;2023-04-26T11:13:24;100110.59;;;14.09;35.22
62124;BME280;48110;47.532;19.078;2023-04-26T11:16:27;100109.06;;;14.28;34.88
62124;BME280;48110;47.532;19.078;2023-04-26T11:19:30;100114.53;;;15.61;32.61
62124;BME280;48110;47.532;19.078;2023-04-26T11:22:33;100114.84;;;17.87;30.56
62124;BME280;48110;47.532;19.078;2023-04-26T11:25:35;100121.16;;;16.87;32.11
62124;BME280;48110;47.532;19.078;2023-04-26T11:28:40;100109.31;;;16.05;32.80
62124;BME280;48110;47.532;19.078;2023-04-26T11:31:55;100110.91;;;14.34;36.38
62124;BME280;48110;47.532;19.078;2023-04-26T11:34:59;100130.44;;;13.02;38.45
62124;BME280;48110;47.532;19.078;2023-04-26T11:38:04;100121.22;;;12.83;37.59
62124;BME280;48110;47.532;19.078;2023-04-26T11:41:07;100137.44;;;13.24;37.45
62124;BME280;48110;47.532;19.078;2023-04-26T11:44:11;100121.84;;;13.21;37.42
62124;BME280;48110;47.532;19.078;2023-04-26T11:47:14;100129.25;;;15.04;35.02
62124;BME280;48110;47.532;19.078;2023-04-26T11:50:16;100128.09;;;15.53;33.14
62124;BME280;48110;47.532;19.078;2023-04-26T11:53:20;100127.06;;;15.87;32.64
62124;BME280;48110;47.532;19.078;2023-04-26T11:56:23;100122.25;;;14.97;35.28
62124;BME280;48110;47.532;19.078;2023-04-26T11:59:26;100114.94;;;15.58;35.03
62124;BME280;48110;47.532;19.078;2023-04-26T12:02:34;100124.00;;;15.63;34.72
62124;BME280;48110;47.532;19.078;2023-04-26T12:05:37;100121.72;;;14.54;37.06
62124;BME280;48110;47.532;19.078;2023-04-26T12:08:40;100118.34;;;13.98;35.86
62124;BME280;48110;47.532;19.078;2023-04-26T12:12:16;100124.59;;;14.52;35.06
62124;BME280;48110;47.532;19.078;2023-04-26T12:15:11;100123.84;;;14.78;35.52
62124;BME280;48110;47.532;19.078;2023-04-26T12:18:16;100127.03;;;18.08;30.20
62124;BME280;48110;47.532;19.078;2023-04-26T12:21:19;100118.75;;;16.21;32.07
62124;BME280;48110;47.532;19.078;2023-04-26T12:24:23;100138.00;;;14.65;35.17
62124;BME280;48110;47.532;19.078;2023-04-26T12:27:26;100123.69;;;14.04;35.65
62124;BME280;48110;47.532;19.078;2023-04-26T12:30:30;100131.91;;;13.47;36.27
62124;BME280;48110;47.532;19.078;2023-04-26T12:33:35;100143.06;;;12.79;38.66
62124;BME280;48110;47.532;19.078;2023-04-26T12:36:41;100137.94;;;13.34;36.25
62124;BME280;48110;47.532;19.078;2023-04-26T12:39:47;100136.03;;;13.77;36.22
62124;BME280;48110;47.532;19.078;2023-04-26T12:42:50;100128.91;;;15.86;33.54
62124;BME280;48110;47.532;19.078;2023-04-26T12:45:53;100127.63;;;18.64;28.71
62124;BME280;48110;47.532;19.078;2023-04-26T12:48:56;100128.72;;;16.65;29.15
62124;BME280;48110;47.532;19.078;2023-04-26T12:51:59;100125.16;;;15.35;32.65
62124;BME280;48110;47.532;19.078;2023-04-26T12:55:01;100136.94;;;14.60;34.96
62124;BME280;48110;47.532;19.078;2023-04-26T12:58:06;100134.84;;;14.49;35.36
62124;BME280;48110;47.532;19.078;2023-04-26T13:01:09;100146.19;;;14.64;35.49
62124;BME280;48110;47.532;19.078;2023-04-26T13:04:12;100152.47;;;17.24;30.48
62124;BME280;48110;47.532;19.078;2023-04-26T13:07:15;100151.22;;;19.75;27.06
62124;BME280;48110;47.532;19.078;2023-04-26T13:10:18;100140.78;;;17.93;30.37
62124;BME280;48110;47.532;19.078;2023-04-26T13:13:21;100144.91;;;15.40;33.17
62124;BME280;48110;47.532;19.078;2023-04-26T13:16:37;100149.41;;;15.00;33.77
62124;BME280;48110;47.532;19.078;2023-04-26T13:19:43;100153.38;;;14.29;32.49
62124;BME280;48110;47.532;19.078;2023-04-26T13:22:50;100147.78;;;14.52;32.65
62124;BME280;48110;47.532;19.078;2023-04-26T13:25:52;100156.72;;;18.49;29.52
62124;BME280;48110;47.532;19.078;2023-04-26T13:28:55;100157.53;;;18.86;28.13
62124;BME280;48110;47.532;19.078;2023-04-26T13:31:58;100154.63;;;18.51;28.43
62124;BME280;48110;47.532;19.078;2023-04-26T13:35:01;100160.44;;;21.01;24.79
62124;BME280;48110;47.532;19.078;2023-04-26T13:38:04;100160.19;;;20.62;24.56
62124;BME280;48110;47.532;19.078;2023-04-26T13:41:06;100169.41;;;21.06;24.40
62124;BME280;48110;47.532;19.078;2023-04-26T13:44:09;100156.72;;;19.27;26.18
62124;BME280;48110;47.532;19.078;2023-04-26T13:47:12;100173.63;;;16.50;29.76
62124;BME280;48110;47.532;19.078;2023-04-26T13:50:14;100165.53;;;14.72;32.91
62124;BME280;48110;47.532;19.078;2023-04-26T13:53:17;100172.50;;;13.98;34.96
62124;BME280;48110;47.532;19.078;2023-04-26T13:56:21;100180.91;;;13.10;36.63
62124;BME280;48110;47.532;19.078;2023-04-26T13:59:27;100168.91;;;12.99;36.98
62124;BME280;48110;47.532;19.078;2023-04-26T14:02:29;100183.63;;;12.95;37.49
62124;BME280;48110;47.532;19.078;2023-04-26T14:05:33;100189.97;;;12.80;37.57
62124;BME280;48110;47.532;19.078;2023-04-26T14:08:35;100182.13;;;14.61;34.04
62124;BME280;48110;47.532;19.078;2023-04-26T14:11:38;100191.72;;;15.03;33.18
62124;BME280;48110;47.532;19.078;2023-04-26T14:14:41;100183.16;;;14.67;34.56
62124;BME280;48110;47.532;19.078;2023-04-26T14:17:43;100181.84;;;14.97;33.92
62124;BME280;48110;47.532;19.078;2023-04-26T14:20:48;100179.47;;;13.99;34.30
62124;BME280;48110;47.532;19.078;2023-04-26T14:23:51;100184.31;;;13.04;36.68
62124;BME280;48110;47.532;19.078;2023-04-26T14:26:53;100180.72;;;12.76;37.72
62124;BME280;48110;47.532;19.078;2023-04-26T14:29:56;100172.22;;;12.22;38.25
62124;BME280;48110;47.532;19.078;2023-04-26T14:32:58;100190.13;;;12.42;38.26
62124;BME280;48110;47.532;19.078;2023-04-26T14:36:01;100187.16;;;12.67;36.98
62124;BME280;48110;47.532;19.078;2023-04-26T14:39:03;100184.94;;;12.85;35.88
62124;BME280;48110;47.532;19.078;2023-04-26T14:42:06;100187.50;;;13.29;35.19
62124;BME280;48110;47.532;19.078;2023-04-26T14:45:08;100195.47;;;12.78;36.81
62124;BME280;48110;47.532;19.078;2023-04-26T14:48:11;100193.37;;;12.74;36.74
62124;BME280;48110;47.532;19.078;2023-04-26T14:51:14;100192.22;;;12.32;36.79
62124;BME280;48110;47.532;19.078;2023-04-26T14:54:16;100205.25;;;12.27;39.37
62124;BME280;48110;47.532;19.078;2023-04-26T14:57:19;100194.50;;;12.06;40.02
62124;BME280;48110;47.532;19.078;2023-04-26T15:00:22;100192.44;;;11.79;39.86
62124;BME280;48110;47.532;19.078;2023-04-26T15:03:26;100206.97;;;12.05;41.09
62124;BME280;48110;47.532;19.078;2023-04-26T15:06:29;100200.97;;;11.74;38.95
62124;BME280;48110;47.532;19.078;2023-04-26T15:09:33;100193.59;;;11.99;39.42
62124;BME280;48110;47.532;19.078;2023-04-26T15:12:36;100209.38;;;12.15;38.06
62124;BME280;48110;47.532;19.078;2023-04-26T15:15:38;100206.97;;;12.20;37.91
62124;BME280;48110;47.532;19.078;2023-04-26T15:18:41;100209.13;;;12.25;38.42
62124;BME280;48110;47.532;19.078;2023-04-26T15:21:43;100219.81;;;12.16;38.78
62124;BME280;48110;47.532;19.078;2023-04-26T15:24:46;100220.31;;;11.83;39.71
62124;BME280;48110;47.532;19.078;2023-04-26T15:27:50;100218.38;;;11.76;40.66
62124;BME280;48110;47.532;19.078;2023-04-26T15:31:02;100219.31;;;11.61;40.48
62124;BME280;48110;47.532;19.078;2023-04-26T15:34:05;100224.31;;;11.33;40.77
62124;BME280;48110;47.532;19.078;2023-04-26T15:37:08;100206.63;;;11.25;40.50
62124;BME280;48110;47.532;19.078;2023-04-26T15:40:11;100216.87;;;11.28;41.16
62124;BME280;48110;47.532;19.078;2023-04-26T15:43:15;100225.38;;;11.24;40.58
62124;BME280;48110;47.532;19.078;2023-04-26T15:46:17;100217.09;;;11.19;40.25
62124;BME280;48110;47.532;19.078;2023-04-26T15:49:22;100207.56;;;11.32;39.82
62124;BME280;48110;47.532;19.078;2023-04-26T15:52:24;100209.81;;;11.66;39.46
62124;BME280;48110;47.532;19.078;2023-04-26T15:55:27;100209.44;;;11.92;39.67
62124;BME280;48110;47.532;19.078;2023-04-26T15:58:29;100220.22;;;11.76;39.09
62124;BME280;48110;47.532;19.078;2023-04-26T16:01:32;100207.41;;;11.71;38.87
62124;BME280;48110;47.532;19.078;2023-04-26T16:04:35;100213.81;;;11.62;39.12
62124;BME280;48110;47.532;19.078;2023-04-26T16:07:38;100215.38;;;11.71;39.42
62124;BME280;48110;47.532;19.078;2023-04-26T16:10:41;100216.53;;;12.00;39.90